Time;durP1;ratioP1;P1;durP2;ratioP2;P2;SDS_P1;SDS_P2;PMS_P1;PMS_P2;Temp;Humidity;BMP_temperature;BMP_pressure;BME280_temperature;BME280_humidity;BME280_pressure;Samples;Min_cycle;Max_cycle;Signal;HPM_P1;HPM_P2
2021/04/04 00:00:01;;;;;;;4.53;2.10;;;6.10;99.90;;;;;;5045087;28;20598;-69
2021/04/04 00:02:29;;;;;;;3.97;2.17;;;6.20;99.90;;;;;;5050550;28;20438;-69
2021/04/04 00:04:55;;;;;;;8.10;3.53;;;6.20;99.90;;;;;;5031544;28;20456;-71
2021/04/04 00:07:22;;;;;;;27.87;3.00;;;6.30;99.90;;;;;;5024944;28;20506;-71
2021/04/04 00:09:48;;;;;;;3.30;2.10;;;6.40;99.90;;;;;;5043323;28;20509;-70
2021/04/04 00:12:15;;;;;;;4.50;2.90;;;6.40;99.90;;;;;;5045033;28;20966;-69
2021/04/04 00:14:43;;;;;;;9.90;4.60;;;6.30;99.90;;;;;;5035777;28;20482;-70
2021/04/04 00:17:10;;;;;;;3.83;2.57;;;6.40;99.90;;;;;;5046175;28;20485;-70
2021/04/04 00:19:37;;;;;;;3.80;2.30;;;6.40;99.90;;;;;;5036898;28;20498;-69
2021/04/04 00:22:04;;;;;;;16.43;3.73;;;6.60;99.90;;;;;;5047394;28;20463;-69
2021/04/04 00:24:30;;;;;;;19.50;2.70;;;6.70;99.90;;;;;;5048971;28;20517;-69
2021/04/04 00:26:57;;;;;;;3.07;2.77;;;6.90;99.90;;;;;;5023185;28;20421;-69
2021/04/04 00:29:24;;;;;;;1.87;1.77;;;6.90;99.90;;;;;;5045797;28;20477;-70
2021/04/04 00:31:51;;;;;;;7.07;2.30;;;6.90;99.90;;;;;;5045179;28;20481;-69
2021/04/04 00:34:17;;;;;;;4.80;2.83;;;6.90;99.90;;;;;;5042565;28;20429;-69
2021/04/04 00:36:45;;;;;;;11.03;3.30;;;6.90;99.90;;;;;;5011759;28;20947;-69
2021/04/04 00:39:12;;;;;;;6.83;2.80;;;6.90;99.90;;;;;;5039163;28;20442;-68
2021/04/04 00:41:40;;;;;;;18.53;3.00;;;6.90;99.90;;;;;;5039287;28;21031;-69
2021/04/04 00:44:07;;;;;;;3.47;2.93;;;6.90;99.90;;;;;;5040968;28;20870;-70
2021/04/04 00:46:34;;;;;;;13.23;4.93;;;7.00;99.90;;;;;;5039185;28;20445;-69
2021/04/04 00:49:01;;;;;;;11.53;3.13;;;7.00;99.90;;;;;;5045804;28;20483;-69
2021/04/04 00:51:28;;;;;;;13.73;2.73;;;7.00;99.90;;;;;;5030914;28;20543;-69
2021/04/04 00:53:56;;;;;;;11.17;2.57;;;7.00;99.90;;;;;;5043239;28;20460;-70
2021/04/04 00:56:22;;;;;;;8.53;2.27;;;7.10;99.90;;;;;;5041026;28;20862;-70
2021/04/04 00:58:50;;;;;;;3.00;2.27;;;7.00;99.90;;;;;;5048145;28;21036;-70
2021/04/04 01:01:16;;;;;;;4.43;2.37;;;7.10;99.90;;;;;;5038605;28;20582;-69
2021/04/04 01:03:43;;;;;;;11.03;3.07;;;7.10;99.90;;;;;;5042086;28;20520;-70
2021/04/04 01:06:11;;;;;;;3.10;2.53;;;7.20;99.90;;;;;;5022410;28;20430;-69
2021/04/04 01:08:40;;;;;;;4.43;2.87;;;7.00;99.90;;;;;;5048292;28;20454;-70
2021/04/04 01:11:09;;;;;;;3.47;3.17;;;7.00;99.90;;;;;;5039972;28;20976;-69
2021/04/04 01:13:40;;;;;;;3.30;2.37;;;7.20;99.90;;;;;;5036112;28;20430;-69
2021/04/04 01:16:12;;;;;;;9.70;2.97;;;7.30;99.90;;;;;;5037574;28;20817;-69
2021/04/04 01:18:42;;;;;;;4.37;3.47;;;7.20;99.90;;;;;;5038386;28;20483;-69
2021/04/04 01:21:12;;;;;;;8.73;1.70;;;7.00;99.90;;;;;;5039167;28;20430;-69
2021/04/04 01:24:03;;;;;;;6.33;2.90;;;7.10;99.90;;;;;;5036550;28;20428;-69
2021/04/04 01:26:47;;;;;;;7.63;3.97;;;7.10;99.90;;;;;;5041793;28;20429;-69
2021/04/04 01:29:17;;;;;;;3.30;2.37;;;7.10;99.90;;;;;;5039796;28;21738;-70
2021/04/04 01:31:44;;;;;;;6.07;2.73;;;7.00;99.90;;;;;;5040601;28;20919;-71
2021/04/04 01:34:12;;;;;;;10.87;3.23;;;6.90;99.90;;;;;;5043593;28;20494;-70
2021/04/04 01:36:40;;;;;;;3.10;2.80;;;6.90;99.90;;;;;;5040046;28;21171;-69
2021/04/04 01:39:09;;;;;;;2.47;2.27;;;6.90;99.90;;;;;;5043794;28;20458;-70
2021/04/04 01:41:39;;;;;;;7.60;2.40;;;6.90;99.90;;;;;;5046114;28;20552;-70
2021/04/04 01:44:08;;;;;;;4.87;2.53;;;6.70;99.90;;;;;;5043023;28;20457;-70
2021/04/04 01:46:38;;;;;;;7.77;3.03;;;6.80;99.90;;;;;;5042237;28;20476;-70
2021/04/04 01:49:05;;;;;;;5.43;2.67;;;6.90;99.90;;;;;;5043201;28;20644;-70
2021/04/04 01:51:32;;;;;;;13.13;2.40;;;6.70;99.90;;;;;;5045059;28;20473;-69
2021/04/04 01:54:02;;;;;;;3.20;2.47;;;6.60;99.90;;;;;;5045921;28;20501;-71
2021/04/04 01:56:29;;;;;;;3.17;2.50;;;6.80;99.90;;;;;;5047932;28;20457;-70
2021/04/04 01:58:56;;;;;;;3.63;2.20;;;6.90;99.90;;;;;;5048769;28;20525;-71
2021/04/04 02:01:23;;;;;;;8.93;2.43;;;7.00;99.90;;;;;;5031965;28;20479;-70
2021/04/04 02:03:51;;;;;;;7.20;2.50;;;7.00;99.90;;;;;;5050987;28;20429;-70
2021/04/04 02:06:18;;;;;;;3.83;2.10;;;7.00;99.90;;;;;;5045213;28;20508;-71
2021/04/04 02:08:46;;;;;;;6.00;2.90;;;7.00;99.90;;;;;;5044195;28;20484;-69
2021/04/04 02:11:16;;;;;;;10.17;3.30;;;7.00;99.90;;;;;;5045841;28;20430;-70
2021/04/04 02:13:44;;;;;;;8.37;3.37;;;7.00;99.90;;;;;;5041824;28;20490;-70
2021/04/04 02:16:11;;;;;;;9.00;2.77;;;6.90;99.90;;;;;;5048640;28;20482;-70
2021/04/04 02:18:39;;;;;;;6.87;3.30;;;6.90;99.90;;;;;;5045420;28;20483;-70
2021/04/04 02:21:06;;;;;;;9.80;2.40;;;7.00;99.90;;;;;;5045947;28;20891;-71
2021/04/04 02:23:33;;;;;;;2.53;2.30;;;7.10;99.90;;;;;;5051792;28;20489;-70
2021/04/04 02:26:00;;;;;;;3.97;2.07;;;7.10;99.90;;;;;;5039087;28;20470;-70
2021/04/04 02:28:26;;;;;;;4.20;2.73;;;7.10;99.90;;;;;;5041736;28;20511;-70
2021/04/04 02:30:54;;;;;;;4.90;2.00;;;7.20;99.90;;;;;;5032256;28;20503;-71
2021/04/04 02:33:24;;;;;;;7.90;2.30;;;7.20;99.90;;;;;;5051926;28;20552;-70
2021/04/04 02:36:03;;;;;;;6.50;2.33;;;7.20;99.90;;;;;;5043756;28;20451;-70
2021/04/04 02:38:33;;;;;;;3.40;1.80;;;7.20;99.90;;;;;;5041889;28;20574;-70
2021/04/04 02:41:02;;;;;;;5.93;3.23;;;7.10;99.90;;;;;;5044217;28;21152;-71
2021/04/04 02:43:31;;;;;;;5.03;2.80;;;7.10;99.90;;;;;;5045942;28;20551;-70
2021/04/04 02:46:00;;;;;;;4.53;2.30;;;7.00;99.90;;;;;;5046258;28;20553;-70
2021/04/04 02:48:30;;;;;;;3.33;1.60;;;7.00;99.90;;;;;;5044644;28;20510;-70
2021/04/04 02:51:00;;;;;;;2.73;1.90;;;7.10;99.90;;;;;;5045881;28;20426;-70
2021/04/04 02:53:29;;;;;;;11.43;2.80;;;7.10;99.90;;;;;;5046733;28;20502;-70
2021/04/04 02:55:59;;;;;;;13.03;3.20;;;7.20;99.90;;;;;;5041857;28;21008;-70
2021/04/04 02:58:28;;;;;;;5.43;2.60;;;7.30;99.90;;;;;;5047461;28;20461;-69
2021/04/04 03:00:57;;;;;;;6.73;2.40;;;7.20;99.90;;;;;;5048694;28;20463;-69
2021/04/04 03:03:28;;;;;;;9.80;2.67;;;7.20;99.90;;;;;;5042316;28;20482;-70
2021/04/04 03:05:57;;;;;;;7.10;3.13;;;7.10;99.90;;;;;;5041685;28;20438;-70
2021/04/04 03:08:24;;;;;;;11.53;3.43;;;7.10;99.90;;;;;;5048800;28;20501;-70
2021/04/04 03:10:52;;;;;;;5.67;2.37;;;7.30;99.90;;;;;;5050586;28;20441;-70
2021/04/04 03:13:21;;;;;;;2.43;1.90;;;7.20;99.90;;;;;;5044234;28;20822;-69
2021/04/04 03:15:49;;;;;;;5.10;3.33;;;7.20;99.90;;;;;;5040932;28;20555;-70
2021/04/04 03:18:17;;;;;;;12.63;2.97;;;7.20;99.90;;;;;;5052054;28;20552;-70
2021/04/04 03:20:45;;;;;;;2.80;1.87;;;7.20;99.90;;;;;;5035523;28;20499;-70
2021/04/04 03:23:14;;;;;;;4.17;2.50;;;7.10;99.90;;;;;;5045232;28;20455;-70
2021/04/04 03:25:42;;;;;;;9.70;3.50;;;7.00;99.90;;;;;;5048463;28;20810;-70
2021/04/04 03:28:09;;;;;;;2.13;1.93;;;7.10;99.90;;;;;;5044116;28;20457;-70
2021/04/04 03:30:42;;;;;;;7.80;2.80;;;7.10;99.90;;;;;;5048441;28;20502;-70
2021/04/04 03:33:11;;;;;;;2.70;2.30;;;6.90;99.90;;;;;;5045375;28;20451;-70
2021/04/04 03:35:38;;;;;;;12.97;2.80;;;6.80;99.90;;;;;;5041883;28;20534;-70
2021/04/04 03:38:07;;;;;;;3.50;2.00;;;6.90;99.90;;;;;;5045862;28;20537;-71
2021/04/04 03:40:33;;;;;;;3.60;2.20;;;7.00;99.90;;;;;;5047056;28;20468;-70
2021/04/04 03:43:06;;;;;;;5.80;3.07;;;7.10;99.90;;;;;;5039972;28;20434;-70
2021/04/04 03:45:33;;;;;;;3.87;2.37;;;7.10;99.90;;;;;;5042214;28;20672;-70
2021/04/04 03:48:01;;;;;;;11.80;2.60;;;7.10;99.90;;;;;;5047838;28;20450;-70
2021/04/04 03:50:29;;;;;;;11.00;3.07;;;7.20;99.90;;;;;;5039582;28;20524;-70
2021/04/04 03:52:56;;;;;;;6.00;2.83;;;7.10;99.90;;;;;;5049568;28;20546;-70
2021/04/04 03:55:25;;;;;;;7.50;3.70;;;7.10;99.90;;;;;;5029129;28;20477;-70
2021/04/04 03:57:53;;;;;;;4.13;3.13;;;7.10;99.90;;;;;;5042164;28;20504;-70
2021/04/04 04:00:22;;;;;;;2.77;2.10;;;7.10;99.90;;;;;;5042711;28;20519;-70
2021/04/04 04:02:50;;;;;;;3.47;3.00;;;7.00;99.90;;;;;;5041297;28;20488;-70
2021/04/04 04:05:20;;;;;;;6.63;2.07;;;6.90;99.90;;;;;;5044939;28;20943;-70
2021/04/04 04:07:48;;;;;;;2.70;2.30;;;6.70;99.90;;;;;;5045187;28;20506;-71
2021/04/04 04:10:16;;;;;;;4.93;2.63;;;6.90;99.90;;;;;;5054414;28;20548;-70
2021/04/04 04:12:44;;;;;;;6.93;3.50;;;6.90;99.90;;;;;;5051318;28;20433;-70
2021/04/04 04:15:13;;;;;;;10.63;2.97;;;7.00;99.90;;;;;;5052365;28;20463;-70
2021/04/04 04:17:41;;;;;;;10.43;2.30;;;7.00;99.90;;;;;;5054622;28;20474;-71
2021/04/04 04:20:09;;;;;;;4.63;3.10;;;7.00;99.90;;;;;;5059096;28;20471;-71
2021/04/04 04:22:38;;;;;;;18.70;2.20;;;6.90;99.90;;;;;;5052300;28;20425;-70
2021/04/04 04:25:06;;;;;;;2.53;1.90;;;6.90;99.90;;;;;;5048192;28;20491;-71
2021/04/04 04:27:33;;;;;;;26.93;3.00;;;6.90;99.90;;;;;;5051703;28;20558;-70
2021/04/04 04:30:02;;;;;;;12.17;3.53;;;6.80;99.90;;;;;;5049034;28;20986;-70
2021/04/04 04:32:32;;;;;;;5.83;2.57;;;6.90;99.90;;;;;;5054836;28;20528;-70
2021/04/04 04:35:02;;;;;;;9.67;4.63;;;6.90;99.90;;;;;;5050507;28;20878;-71
2021/04/04 04:37:30;;;;;;;12.90;2.50;;;6.90;99.90;;;;;;5052289;28;20498;-69
2021/04/04 04:39:59;;;;;;;4.87;2.70;;;6.90;99.90;;;;;;5054521;28;20907;-70
2021/04/04 04:42:26;;;;;;;6.23;2.23;;;6.80;99.90;;;;;;5057771;28;20618;-71
2021/04/04 04:44:53;;;;;;;4.93;1.80;;;6.90;99.90;;;;;;5052833;28;20493;-71
2021/04/04 04:47:20;;;;;;;11.70;2.17;;;6.90;99.90;;;;;;5056943;28;20533;-70
2021/04/04 04:49:47;;;;;;;13.13;1.97;;;6.90;99.90;;;;;;5037425;28;21488;-70
2021/04/04 04:52:14;;;;;;;5.53;2.47;;;6.80;99.90;;;;;;5027005;28;20967;-72
2021/04/04 04:54:42;;;;;;;7.43;2.43;;;6.80;99.90;;;;;;5042890;28;20874;-68
2021/04/04 04:57:11;;;;;;;18.97;2.47;;;6.80;99.90;;;;;;5043343;28;20489;-70
2021/04/04 04:59:39;;;;;;;8.20;2.77;;;6.80;99.90;;;;;;5046864;28;20426;-71
2021/04/04 05:02:09;;;;;;;5.03;2.47;;;6.90;99.90;;;;;;5052106;28;20455;-70
2021/04/04 05:04:35;;;;;;;3.57;2.30;;;7.00;99.90;;;;;;5050264;28;20441;-70
2021/04/04 05:07:02;;;;;;;5.63;1.57;;;7.00;99.90;;;;;;5045219;28;20457;-72
2021/04/04 05:09:29;;;;;;;4.47;3.20;;;7.10;99.90;;;;;;5042306;28;21074;-70
2021/04/04 05:11:57;;;;;;;2.73;1.73;;;7.00;99.90;;;;;;5052126;28;20433;-69
2021/04/04 05:14:24;;;;;;;5.67;2.70;;;7.10;99.90;;;;;;5046524;28;20431;-72
2021/04/04 05:16:53;;;;;;;3.83;2.53;;;6.90;99.90;;;;;;5053372;28;20453;-70
2021/04/04 05:19:22;;;;;;;16.13;2.80;;;7.00;99.90;;;;;;5050029;28;20546;-70
2021/04/04 05:21:50;;;;;;;8.00;2.40;;;7.00;99.90;;;;;;5049431;28;20487;-69
2021/04/04 05:24:16;;;;;;;8.90;3.00;;;7.10;99.90;;;;;;5048361;28;20608;-70
2021/04/04 05:26:45;;;;;;;2.60;1.93;;;7.10;99.90;;;;;;5047706;28;20512;-69
2021/04/04 05:29:13;;;;;;;8.33;2.77;;;7.10;99.90;;;;;;5046199;28;20484;-70
2021/04/04 05:31:47;;;;;;;2.13;1.93;;;7.30;99.90;;;;;;5051353;28;20437;-69
2021/04/04 05:34:15;;;;;;;5.33;2.30;;;7.30;99.90;;;;;;5048468;28;20571;-70
2021/04/04 05:36:49;;;;;;;7.63;2.13;;;7.20;99.90;;;;;;5048276;28;20446;-70
2021/04/04 05:39:18;;;;;;;5.03;2.20;;;7.10;99.90;;;;;;5050249;28;20516;-69
2021/04/04 05:41:49;;;;;;;4.23;2.40;;;7.10;99.90;;;;;;5046298;28;20778;-70
2021/04/04 05:44:18;;;;;;;9.33;2.53;;;7.10;99.90;;;;;;5046399;28;20529;-70
2021/04/04 05:46:54;;;;;;;5.30;2.40;;;7.10;99.90;;;;;;5048731;28;20518;-71
2021/04/04 05:49:45;;;;;;;2.00;1.80;;;6.80;99.90;;;;;;5048354;28;20517;-70
2021/04/04 05:52:20;;;;;;;2.90;2.10;;;6.90;99.90;;;;;;5047665;28;20498;-72
2021/04/04 05:54:55;;;;;;;2.83;1.77;;;6.90;99.90;;;;;;5047711;28;20430;-70
2021/04/04 05:57:29;;;;;;;6.73;1.70;;;7.00;99.90;;;;;;5046011;28;20476;-69
2021/04/04 06:00:01;;;;;;;1.70;1.40;;;7.20;99.90;;;;;;5045724;28;20455;-69
2021/04/04 06:03:11;;;;;;;2.67;1.73;;;7.20;99.90;;;;;;5049592;28;20443;-69
2021/04/04 06:06:02;;;;;;;6.10;2.30;;;7.20;99.90;;;;;;5052135;28;20453;-70
2021/04/04 06:09:01;;;;;;;1.87;1.40;;;7.20;99.90;;;;;;5047699;28;20477;-70
2021/04/04 06:11:33;;;;;;;5.90;2.17;;;7.10;99.90;;;;;;5049597;28;20504;-69
2021/04/04 06:14:10;;;;;;;3.40;2.60;;;7.10;99.90;;;;;;5054982;28;20452;-68
2021/04/04 06:16:49;;;;;;;3.93;2.10;;;7.20;99.90;;;;;;5047008;28;21679;-69
2021/04/04 06:19:28;;;;;;;3.13;1.57;;;7.20;99.90;;;;;;5052882;28;20417;-69
2021/04/04 06:22:05;;;;;;;2.17;1.57;;;7.20;99.90;;;;;;5051839;28;20444;-69
2021/04/04 06:24:34;;;;;;;1.57;1.30;;;7.10;99.90;;;;;;5049895;28;20490;-71
2021/04/04 06:27:10;;;;;;;5.63;2.67;;;7.10;99.90;;;;;;5057861;28;20777;-67
2021/04/04 06:29:52;;;;;;;3.47;1.63;;;7.30;99.90;;;;;;5048792;28;20425;-68
2021/04/04 06:32:25;;;;;;;4.70;1.93;;;7.10;99.90;;;;;;5056982;28;20458;-69
2021/04/04 06:34:56;;;;;;;2.80;1.80;;;7.00;99.90;;;;;;5049134;28;20451;-72
2021/04/04 06:37:44;;;;;;;3.33;1.83;;;7.20;99.90;;;;;;5045471;28;20461;-69
2021/04/04 06:40:13;;;;;;;2.20;2.00;;;7.10;99.90;;;;;;5046704;28;20544;-70
2021/04/04 06:43:07;;;;;;;3.10;2.07;;;7.20;99.90;;;;;;5057815;28;20492;-70
2021/04/04 06:45:43;;;;;;;2.30;1.40;;;7.30;99.90;;;;;;5051500;28;20446;-69
2021/04/04 06:48:38;;;;;;;2.60;1.90;;;7.40;99.90;;;;;;5036571;28;20449;-70
2021/04/04 06:51:14;;;;;;;5.00;1.70;;;7.20;99.90;;;;;;5045227;28;20578;-70
2021/04/04 06:54:03;;;;;;;3.97;1.40;;;7.30;99.90;;;;;;5049132;28;21002;-70
2021/04/04 06:56:39;;;;;;;3.20;1.33;;;7.30;99.90;;;;;;5045534;28;20442;-69
2021/04/04 06:59:14;;;;;;;1.83;1.37;;;7.30;99.90;;;;;;5054516;28;20448;-68
2021/04/04 07:01:55;;;;;;;2.97;1.63;;;7.30;99.90;;;;;;5039691;28;20972;-68
2021/04/04 07:04:26;;;;;;;1.70;1.50;;;7.20;99.90;;;;;;5046883;28;20447;-68
2021/04/04 07:07:19;;;;;;;10.70;2.40;;;7.10;99.90;;;;;;5049965;28;20435;-69
2021/04/04 07:10:04;;;;;;;7.77;1.90;;;7.10;99.90;;;;;;5047107;28;20451;-70
2021/04/04 07:12:54;;;;;;;5.43;2.07;;;7.40;99.90;;;;;;5056308;28;20459;-69
2021/04/04 07:15:39;;;;;;;4.80;1.77;;;7.40;99.90;;;;;;5053670;28;20780;-69
2021/04/04 07:18:29;;;;;;;2.37;1.83;;;7.40;99.90;;;;;;5055089;28;20605;-68
2021/04/04 07:21:09;;;;;;;3.73;1.90;;;7.40;99.90;;;;;;5049119;28;20422;-72
2021/04/04 07:23:57;;;;;;;3.00;1.70;;;7.30;99.90;;;;;;5044846;28;21076;-69
2021/04/04 07:26:42;;;;;;;3.20;1.97;;;7.50;99.90;;;;;;5047298;28;20936;-69
2021/04/04 07:29:36;;;;;;;3.83;2.10;;;7.60;99.90;;;;;;5053139;28;20481;-71
2021/04/04 07:32:10;;;;;;;2.50;1.70;;;7.60;99.90;;;;;;5054547;28;21899;-69
2021/04/04 07:34:46;;;;;;;6.10;3.47;;;7.50;99.90;;;;;;5038029;28;20453;-69
2021/04/04 07:37:25;;;;;;;10.60;2.67;;;7.40;99.90;;;;;;5049275;28;20478;-69
2021/04/04 07:40:02;;;;;;;5.00;3.47;;;7.50;99.90;;;;;;5056129;28;20444;-68
2021/04/04 07:42:34;;;;;;;6.93;2.60;;;7.60;99.90;;;;;;5042939;28;20474;-68
2021/04/04 07:45:11;;;;;;;3.27;1.73;;;7.50;99.90;;;;;;5048170;28;20437;-69
2021/04/04 07:47:44;;;;;;;4.07;1.90;;;7.40;99.90;;;;;;5043386;28;20944;-69
2021/04/04 07:50:14;;;;;;;6.67;2.00;;;7.50;99.90;;;;;;5045005;28;20946;-70
2021/04/04 07:52:48;;;;;;;4.20;1.70;;;7.50;99.90;;;;;;5042100;28;20448;-69
2021/04/04 07:55:19;;;;;;;4.50;1.90;;;7.60;99.90;;;;;;5045164;28;20436;-71
2021/04/04 07:57:52;;;;;;;2.37;1.50;;;7.70;99.90;;;;;;5039732;28;20505;-70
2021/04/04 08:00:21;;;;;;;5.47;1.80;;;7.80;99.90;;;;;;5043006;28;20434;-69
2021/04/04 08:02:51;;;;;;;5.00;2.47;;;7.80;99.90;;;;;;5048991;28;20812;-70
2021/04/04 08:05:22;;;;;;;3.33;2.10;;;7.70;99.90;;;;;;5048937;28;20441;-70
2021/04/04 08:07:54;;;;;;;4.03;1.57;;;7.60;99.90;;;;;;5042650;28;20479;-69
2021/04/04 08:10:30;;;;;;;3.60;2.10;;;7.50;99.90;;;;;;5045814;28;20445;-69
2021/04/04 08:13:03;;;;;;;5.13;2.00;;;7.40;99.90;;;;;;5048165;28;21156;-70
2021/04/04 08:15:37;;;;;;;10.80;4.93;;;7.20;99.90;;;;;;5042201;28;20531;-71
2021/04/04 08:18:04;;;;;;;6.40;2.70;;;7.10;99.90;;;;;;5040840;28;20560;-70
2021/04/04 08:20:41;;;;;;;1.90;1.80;;;7.30;99.90;;;;;;5046989;28;20900;-69
2021/04/04 08:23:16;;;;;;;3.40;2.37;;;7.50;99.90;;;;;;5059558;28;20478;-70
2021/04/04 08:25:49;;;;;;;1.97;1.33;;;7.70;99.90;;;;;;5062644;28;20417;-71
2021/04/04 08:28:24;;;;;;;3.03;1.53;;;7.50;99.90;;;;;;5050701;28;20453;-71
2021/04/04 08:30:54;;;;;;;2.90;1.17;;;7.50;99.90;;;;;;5051077;28;20416;-70
2021/04/04 08:33:26;;;;;;;2.17;1.50;;;7.50;99.90;;;;;;5050065;28;21038;-69
2021/04/04 08:35:54;;;;;;;1.60;1.10;;;7.70;99.90;;;;;;5053729;28;20417;-71
2021/04/04 08:38:26;;;;;;;2.67;1.60;;;7.80;99.90;;;;;;5052192;28;20453;-70
2021/04/04 08:40:57;;;;;;;2.47;1.80;;;7.90;99.90;;;;;;5055591;28;20464;-70
2021/04/04 08:43:26;;;;;;;1.60;1.10;;;7.90;99.90;;;;;;5055883;28;20426;-70
2021/04/04 08:45:58;;;;;;;2.80;2.27;;;7.90;99.90;;;;;;5059922;28;20450;-69
2021/04/04 08:48:27;;;;;;;2.93;1.43;;;7.80;99.90;;;;;;5055003;28;20474;-69
2021/04/04 08:50:56;;;;;;;2.97;1.83;;;7.60;99.90;;;;;;5041830;28;20906;-70
2021/04/04 08:53:25;;;;;;;1.50;1.00;;;7.40;99.90;;;;;;5047653;28;20533;-72
2021/04/04 08:55:53;;;;;;;5.50;1.40;;;7.40;99.90;;;;;;5043730;28;20444;-70
2021/04/04 08:58:24;;;;;;;13.80;3.13;;;7.40;99.90;;;;;;5041204;28;20462;-70
2021/04/04 09:00:57;;;;;;;3.97;1.60;;;7.40;99.90;;;;;;5043176;28;20457;-71
2021/04/04 09:03:25;;;;;;;8.50;2.27;;;7.40;99.90;;;;;;5044575;28;20479;-70
2021/04/04 09:06:00;;;;;;;2.93;2.30;;;7.40;99.90;;;;;;5043042;28;20430;-72
2021/04/04 09:08:28;;;;;;;1.87;1.20;;;7.50;99.90;;;;;;5038372;28;20504;-71
2021/04/04 09:10:55;;;;;;;4.47;2.23;;;7.60;99.90;;;;;;5037860;28;20458;-69
2021/04/04 09:13:23;;;;;;;2.47;2.00;;;7.80;99.90;;;;;;5043789;28;20793;-69
2021/04/04 09:15:52;;;;;;;2.37;1.40;;;8.10;99.90;;;;;;5046742;28;20486;-70
2021/04/04 09:18:19;;;;;;;6.30;1.97;;;8.10;99.90;;;;;;5044415;28;20522;-71
2021/04/04 09:20:47;;;;;;;4.80;1.90;;;8.00;99.90;;;;;;5037769;28;20968;-69
2021/04/04 09:23:17;;;;;;;4.77;1.90;;;7.80;99.90;;;;;;5044166;28;20431;-70
2021/04/04 09:25:50;;;;;;;1.97;1.67;;;7.40;99.90;;;;;;5044830;28;20426;-70
2021/04/04 09:28:17;;;;;;;3.03;1.70;;;7.50;99.90;;;;;;5042004;28;20472;-71
2021/04/04 09:30:47;;;;;;;2.30;1.87;;;7.60;99.90;;;;;;5042885;28;20936;-69
2021/04/04 09:33:17;;;;;;;5.40;1.97;;;7.70;99.90;;;;;;5044049;28;20430;-70
2021/04/04 09:35:46;;;;;;;1.87;1.37;;;7.70;99.90;;;;;;5047439;28;20454;-70
2021/04/04 09:38:15;;;;;;;2.13;1.67;;;7.60;99.90;;;;;;5040293;28;20487;-69
2021/04/04 09:40:43;;;;;;;12.00;2.10;;;7.50;99.90;;;;;;5046549;28;20587;-70
2021/04/04 09:43:11;;;;;;;2.20;1.67;;;7.40;99.90;;;;;;5042379;28;20534;-70
2021/04/04 09:45:39;;;;;;;2.07;1.87;;;7.40;99.90;;;;;;5042660;28;20499;-70
2021/04/04 09:48:20;;;;;;;2.27;1.23;;;7.50;99.90;;;;;;5039405;28;20508;-70
2021/04/04 09:50:48;;;;;;;2.03;1.73;;;7.50;99.90;;;;;;5039610;28;20434;-70
2021/04/04 09:53:35;;;;;;;2.93;1.57;;;7.70;99.90;;;;;;5045656;28;20421;-71
2021/04/04 09:56:06;;;;;;;3.67;2.00;;;7.80;99.90;;;;;;5043815;28;20445;-68
2021/04/04 09:58:32;;;;;;;4.40;1.63;;;8.00;99.90;;;;;;5037568;28;20483;-72
2021/04/04 10:01:01;;;;;;;2.40;2.20;;;8.20;99.90;;;;;;5042057;28;20455;-70
2021/04/04 10:03:28;;;;;;;2.50;1.50;;;8.30;99.90;;;;;;5050210;28;20417;-70
2021/04/04 10:05:55;;;;;;;2.73;1.60;;;8.20;99.90;;;;;;5048355;28;20942;-70
2021/04/04 10:08:25;;;;;;;10.67;2.00;;;8.00;99.90;;;;;;5039754;28;20608;-71
2021/04/04 10:10:53;;;;;;;3.07;1.80;;;8.00;99.90;;;;;;5048897;28;20986;-71
2021/04/04 10:13:25;;;;;;;2.73;2.17;;;8.00;99.90;;;;;;5047767;28;20439;-71
2021/04/04 10:15:54;;;;;;;2.37;2.07;;;8.00;99.90;;;;;;5041131;28;20437;-70
2021/04/04 10:18:24;;;;;;;2.73;2.20;;;8.10;99.90;;;;;;5050742;28;20493;-72
2021/04/04 10:20:54;;;;;;;1.73;1.37;;;8.20;99.90;;;;;;5052527;28;20770;-70
2021/04/04 10:23:28;;;;;;;5.03;2.77;;;8.20;99.90;;;;;;5057389;28;20434;-71
2021/04/04 10:26:01;;;;;;;4.23;2.20;;;8.10;99.90;;;;;;5057355;28;20433;-71
2021/04/04 10:28:44;;;;;;;2.17;1.50;;;8.30;99.90;;;;;;5055234;28;20452;-70
2021/04/04 10:31:13;;;;;;;2.80;2.00;;;8.20;99.90;;;;;;5053573;28;20440;-70
2021/04/04 10:33:40;;;;;;;2.30;1.50;;;8.20;99.90;;;;;;5043862;28;20455;-72
2021/04/04 10:36:16;;;;;;;7.33;1.80;;;8.20;99.90;;;;;;5049718;28;20517;-71
2021/04/04 10:38:42;;;;;;;5.70;1.77;;;8.40;99.90;;;;;;5043005;28;20598;-72
2021/04/04 10:41:09;;;;;;;3.53;2.17;;;8.60;99.90;;;;;;5047384;28;20541;-71
2021/04/04 10:43:37;;;;;;;3.13;1.77;;;8.60;99.90;;;;;;5045174;28;20486;-70
2021/04/04 10:46:07;;;;;;;2.20;1.70;;;8.20;99.90;;;;;;5045051;28;20438;-72
2021/04/04 10:48:35;;;;;;;2.03;1.30;;;8.20;99.90;;;;;;5051748;28;20478;-70
2021/04/04 10:51:03;;;;;;;5.07;2.60;;;8.30;99.90;;;;;;5048055;28;20810;-69
2021/04/04 10:53:31;;;;;;;5.70;3.30;;;8.20;99.90;;;;;;5052074;28;20455;-69
2021/04/04 10:55:58;;;;;;;3.73;2.70;;;8.00;99.90;;;;;;5046350;28;20454;-71
2021/04/04 10:58:26;;;;;;;6.23;3.73;;;8.10;99.90;;;;;;5044628;28;20483;-71
2021/04/04 11:00:53;;;;;;;5.17;3.00;;;8.30;99.90;;;;;;5042725;28;20428;-70
2021/04/04 11:03:21;;;;;;;1.97;1.67;;;8.50;99.90;;;;;;5046904;28;20418;-69
2021/04/04 11:05:48;;;;;;;31.83;12.53;;;8.40;99.90;;;;;;5045098;28;20429;-70
2021/04/04 11:08:15;;;;;;;1.80;1.30;;;8.30;99.90;;;;;;5050353;28;20441;-69
2021/04/04 11:10:43;;;;;;;3.00;1.60;;;8.30;99.90;;;;;;5044312;28;20448;-70
2021/04/04 11:13:12;;;;;;;5.33;2.80;;;8.40;99.90;;;;;;5044052;28;20530;-70
2021/04/04 11:15:41;;;;;;;2.70;1.70;;;8.60;99.90;;;;;;5023911;28;20517;-70
2021/04/04 11:18:12;;;;;;;2.90;1.87;;;8.60;99.90;;;;;;5047571;28;20562;-70
2021/04/04 11:20:42;;;;;;;1.47;1.20;;;8.60;99.90;;;;;;5047639;28;20421;-71
2021/04/04 11:23:10;;;;;;;2.90;1.83;;;8.60;99.90;;;;;;5057161;28;20424;-72
2021/04/04 11:25:37;;;;;;;2.20;1.47;;;8.60;99.90;;;;;;5053906;28;20982;-70
2021/04/04 11:28:17;;;;;;;3.60;2.13;;;8.40;99.90;;;;;;5052262;28;20482;-68
2021/04/04 11:30:45;;;;;;;7.43;2.27;;;8.30;99.90;;;;;;5059632;28;20425;-69
2021/04/04 11:33:27;;;;;;;3.63;2.00;;;8.30;99.90;;;;;;5048089;28;20464;-71
2021/04/04 11:36:06;;;;;;;3.43;2.30;;;8.30;99.90;;;;;;5041181;28;20513;-69
2021/04/04 11:38:35;;;;;;;2.97;2.03;;;8.40;99.90;;;;;;5038037;28;20472;-72
2021/04/04 11:41:12;;;;;;;11.40;6.47;;;8.60;99.90;;;;;;5045540;28;20477;-70
2021/04/04 11:43:40;;;;;;;10.63;5.27;;;8.60;99.90;;;;;;5040650;28;20464;-70
2021/04/04 11:46:46;;;;;;;11.37;6.10;;;8.50;99.90;;;;;;5046531;28;20942;-70
2021/04/04 11:49:41;;;;;;;9.03;5.17;;;8.70;99.90;;;;;;5036724;28;20450;-72
2021/04/04 11:52:47;;;;;;;9.90;6.43;;;8.70;99.90;;;;;;5043435;28;21003;-70
2021/04/04 11:55:15;;;;;;;11.30;5.10;;;8.80;99.90;;;;;;5038172;28;20422;-71
2021/04/04 11:57:45;;;;;;;8.80;3.93;;;8.70;99.90;;;;;;5043766;28;20454;-68
2021/04/04 12:00:19;;;;;;;4.37;3.73;;;8.70;99.90;;;;;;5049998;28;20425;-70
2021/04/04 12:02:57;;;;;;;8.67;3.07;;;8.70;99.90;;;;;;5045465;28;20440;-71
2021/04/04 12:05:24;;;;;;;3.47;2.40;;;8.70;99.90;;;;;;5046808;28;20414;-70
2021/04/04 12:07:52;;;;;;;4.17;2.57;;;8.80;99.90;;;;;;5042570;28;20478;-71
2021/04/04 12:10:20;;;;;;;13.63;6.07;;;8.50;99.90;;;;;;5046673;28;20447;-71
2021/04/04 12:12:48;;;;;;;9.27;5.90;;;8.40;99.90;;;;;;5048270;28;20517;-70
2021/04/04 12:15:17;;;;;;;5.20;3.33;;;8.40;99.90;;;;;;5045298;28;20422;-72
2021/04/04 12:17:47;;;;;;;12.63;5.47;;;8.40;99.90;;;;;;5044500;28;21668;-70
2021/04/04 12:20:15;;;;;;;6.63;4.77;;;8.40;99.90;;;;;;5046385;28;20433;-70
2021/04/04 12:22:44;;;;;;;12.80;6.10;;;8.80;99.90;;;;;;5044108;28;21427;-70
2021/04/04 12:25:12;;;;;;;14.37;4.17;;;8.80;99.90;;;;;;5044472;28;20998;-71
2021/04/04 12:27:42;;;;;;;8.40;5.83;;;8.70;99.90;;;;;;5042255;28;20458;-72
2021/04/04 12:30:20;;;;;;;5.47;3.73;;;8.90;99.90;;;;;;5043027;28;20466;-71
2021/04/04 12:32:48;;;;;;;5.10;3.80;;;8.90;99.90;;;;;;5044377;28;20414;-71
2021/04/04 12:35:23;;;;;;;6.30;3.77;;;9.00;99.90;;;;;;5043205;28;20525;-72
2021/04/04 12:37:50;;;;;;;5.83;3.80;;;9.10;99.90;;;;;;5041540;28;20459;-70
2021/04/04 12:40:16;;;;;;;3.93;2.90;;;9.10;99.90;;;;;;5040629;28;20540;-70
2021/04/04 12:42:44;;;;;;;8.67;5.33;;;9.00;99.90;;;;;;5047478;28;20463;-72
2021/04/04 12:45:13;;;;;;;3.00;2.70;;;9.20;99.90;;;;;;5036811;28;20884;-70
2021/04/04 12:47:41;;;;;;;10.83;4.50;;;9.40;99.90;;;;;;5042182;28;20450;-70
2021/04/04 12:50:11;;;;;;;7.40;3.90;;;9.50;99.90;;;;;;5040878;28;20437;-71
2021/04/04 12:52:40;;;;;;;5.10;2.87;;;9.70;99.90;;;;;;5044914;28;20426;-72
2021/04/04 12:55:18;;;;;;;7.80;3.43;;;9.60;99.90;;;;;;5044403;28;20913;-70
2021/04/04 12:57:47;;;;;;;8.70;3.50;;;9.50;99.90;;;;;;5041275;28;20956;-68
2021/04/04 13:00:17;;;;;;;7.47;4.33;;;9.60;99.90;;;;;;5045808;28;20938;-68
2021/04/04 13:03:12;;;;;;;4.17;3.30;;;9.70;99.90;;;;;;5044257;28;20786;-70
2021/04/04 13:05:42;;;;;;;5.30;3.03;;;9.70;99.90;;;;;;5035454;28;20548;-69
2021/04/04 13:08:12;;;;;;;8.00;4.57;;;9.40;99.90;;;;;;5043159;28;20442;-69
2021/04/04 13:10:39;;;;;;;5.20;4.17;;;9.60;99.90;;;;;;5049225;28;20452;-72
2021/04/04 13:13:15;;;;;;;7.47;5.20;;;9.90;99.90;;;;;;5061891;28;20421;-71
2021/04/04 13:15:42;;;;;;;9.07;4.90;;;10.00;99.90;;;;;;5038757;28;20459;-71